createdAt,value
2023-01-08T08:34:45.849Z,32.90
2023-01-08T08:37:12.818Z,32.40
2023-01-08T08:39:39.551Z,25.70
2023-01-08T08:42:09.269Z,28.50
2023-01-08T08:44:42.944Z,38.60
2023-01-08T08:47:10.219Z,33.40
2023-01-08T08:49:38.745Z,43.80
2023-01-08T08:52:05.653Z,37.80
2023-01-08T08:54:32.371Z,31.80
2023-01-08T08:56:59.126Z,37.30
2023-01-08T08:59:26.126Z,32.10
2023-01-08T09:01:53.197Z,54.80
2023-01-08T09:04:19.949Z,39.30
2023-01-08T09:06:46.693Z,39.50
2023-01-08T09:09:15.056Z,47.00
2023-01-08T09:11:42.025Z,31.00
2023-01-08T09:14:09.438Z,45.90
2023-01-08T09:16:37.188Z,37.80
2023-01-08T09:19:04.293Z,42.90
2023-01-08T09:21:31.142Z,31.90
2023-01-08T09:23:58.185Z,36.40
2023-01-08T09:26:24.948Z,44.10
2023-01-08T09:28:51.773Z,36.80
2023-01-08T09:31:18.591Z,44.10
2023-01-08T09:33:47.680Z,37.70
2023-01-08T09:36:14.549Z,40.50
2023-01-08T09:38:41.392Z,41.50
2023-01-08T09:41:10.559Z,42.90
2023-01-08T09:43:38.867Z,49.60
2023-01-08T09:46:06.567Z,34.40
2023-01-08T09:48:36.009Z,34.50
2023-01-08T09:51:02.959Z,49.80
2023-01-08T09:53:29.820Z,42.50
2023-01-08T09:56:14.475Z,32.30
2023-01-08T09:58:51.870Z,42.40
2023-01-08T10:01:21.791Z,36.70
2023-01-08T10:03:56.010Z,34.20
2023-01-08T10:06:23.360Z,38.80
2023-01-08T10:08:50.527Z,52.20
2023-01-08T10:11:17.439Z,33.10
2023-01-08T10:13:53.310Z,34.70
2023-01-08T12:12:32.583Z,44.70
2023-01-08T12:15:05.182Z,30.00
2023-01-08T12:17:41.240Z,26.10
2023-01-08T12:20:24.496Z,31.00
2023-01-08T12:23:13.276Z,36.30
2023-01-08T12:26:06.277Z,27.50
2023-01-08T12:28:52.457Z,26.40
2023-01-08T12:31:46.376Z,28.50
2023-01-08T12:34:18.723Z,20.60
2023-01-08T12:36:46.890Z,32.00
2023-01-08T12:39:27.230Z,29.50
2023-01-08T12:41:54.512Z,28.60
2023-01-08T12:44:23.556Z,26.70
2023-01-08T12:46:50.202Z,34.40
2023-01-08T12:49:24.296Z,35.00
2023-01-08T12:51:53.862Z,41.60
2023-01-08T12:54:57.150Z,29.00
2023-01-08T12:57:34.076Z,30.00
2023-01-08T13:00:26.325Z,46.30
2023-01-08T13:03:01.239Z,41.20
2023-01-08T13:05:29.678Z,30.90
2023-01-08T13:08:04.372Z,44.10
2023-01-08T13:10:31.042Z,29.20
2023-01-08T13:12:58.440Z,43.10
2023-01-08T13:15:25.948Z,39.10
2023-01-08T13:17:57.563Z,30.30
2023-01-08T13:20:27.539Z,50.60
2023-01-08T13:22:56.176Z,35.50
2023-01-08T13:25:33.100Z,37.50
2023-01-08T13:28:19.549Z,33.70
2023-01-08T13:30:48.562Z,31.60
2023-01-08T13:33:38.922Z,32.20
2023-01-08T13:36:29.720Z,28.90
2023-01-08T13:39:11.717Z,34.50
2023-01-08T13:41:58.771Z,39.10
2023-01-08T13:44:28.264Z,30.30
2023-01-08T13:46:57.413Z,31.90
2023-01-08T13:49:43.897Z,32.20
2023-01-08T13:52:34.394Z,35.40
2023-01-08T13:55:02.672Z,35.20
2023-01-08T13:57:51.171Z,35.80
2023-01-08T14:00:28.782Z,43.10
2023-01-08T14:02:55.533Z,31.60
2023-01-08T14:05:27.656Z,30.70
2023-01-08T14:07:54.494Z,32.70
2023-01-08T14:10:21.937Z,35.70
2023-01-08T14:12:51.451Z,34.90
2023-01-08T14:17:53.331Z,43.90
2023-01-08T14:20:32.301Z,49.90
2023-01-08T14:23:00.833Z,46.50
2023-01-08T14:25:27.890Z,46.50
2023-01-08T14:28:00.424Z,26.30
2023-01-08T14:30:27.299Z,40.60
2023-01-08T14:32:55.571Z,45.30
2023-01-08T14:35:32.054Z,40.00
2023-01-08T14:38:00.651Z,62.40
2023-01-08T14:40:32.703Z,40.50
2023-01-08T14:43:03.066Z,28.70
2023-01-08T14:45:32.066Z,36.20
2023-01-08T14:48:26.768Z,30.30
2023-01-08T14:50:58.206Z,30.50
2023-01-08T14:53:36.310Z,30.80
2023-01-08T14:56:04.262Z,36.30
2023-01-08T14:58:36.873Z,37.00
2023-01-08T15:01:07.835Z,43.20
2023-01-08T15:03:39.301Z,37.10
2023-01-08T15:06:06.888Z,46.30
2023-01-08T15:08:38.895Z,38.50
2023-01-08T15:11:25.839Z,49.00
2023-01-08T15:13:56.680Z,20.00
2023-01-08T15:16:39.829Z,34.00
2023-01-08T15:19:10.176Z,36.80
2023-01-08T15:21:36.818Z,34.80
2023-01-08T15:24:04.732Z,38.50
2023-01-08T15:26:33.431Z,40.60
2023-01-08T15:29:06.780Z,30.90
2023-01-08T15:31:39.355Z,32.00
2023-01-08T15:34:08.000Z,37.70
2023-01-08T15:36:36.786Z,32.90
2023-01-08T15:39:04.471Z,38.10
2023-01-08T15:41:54.907Z,34.80
2023-01-08T15:46:49.117Z,38.80
2023-01-08T15:49:17.101Z,51.40
2023-01-08T15:51:46.159Z,51.20
2023-01-08T15:54:13.228Z,35.70
2023-01-08T15:56:40.099Z,52.40
2023-01-08T15:59:07.249Z,40.50
2023-01-08T16:01:33.967Z,44.80
2023-01-08T16:04:00.762Z,43.60
2023-01-08T16:06:27.445Z,58.60
2023-01-08T16:08:57.255Z,55.40
2023-01-08T16:11:23.895Z,40.20
2023-01-08T16:13:50.898Z,50.70
2023-01-08T16:16:17.926Z,51.80
2023-01-08T16:18:44.994Z,41.70
2023-01-08T16:21:12.009Z,50.70
2023-01-08T16:23:39.339Z,55.30
2023-01-08T16:26:06.747Z,98.30
2023-01-08T16:28:35.071Z,141.50
2023-01-08T16:31:02.220Z,63.10
2023-01-08T16:33:29.095Z,75.40
2023-01-08T16:35:59.780Z,130.70
2023-01-08T16:38:26.636Z,76.00
2023-01-08T16:40:55.854Z,70.40
2023-01-08T16:43:23.932Z,61.70
2023-01-08T16:45:50.926Z,51.20
2023-01-08T16:48:17.902Z,59.90
2023-01-08T16:50:44.736Z,57.60
2023-01-08T16:53:11.722Z,48.80
2023-01-08T16:55:39.529Z,59.40
2023-01-08T16:58:06.895Z,57.00
2023-01-08T17:00:39.159Z,50.50
2023-01-08T17:03:06.743Z,53.50
2023-01-08T17:05:35.951Z,66.60
2023-01-08T17:08:02.710Z,56.40
2023-01-08T17:10:29.934Z,57.30
2023-01-08T17:12:56.678Z,57.00
2023-01-08T17:15:25.867Z,63.70
2023-01-08T17:17:52.761Z,48.40
2023-01-08T17:20:19.738Z,68.90
2023-01-08T17:22:49.061Z,55.10
2023-01-08T17:25:15.697Z,61.60
2023-01-08T17:27:42.842Z,65.10
2023-01-08T17:30:11.206Z,64.50
2023-01-08T17:32:39.197Z,57.80
2023-01-08T17:35:06.635Z,62.80
2023-01-08T17:37:33.412Z,45.30
2023-01-08T17:40:01.511Z,49.00
2023-01-08T17:42:28.966Z,55.40
2023-01-08T17:44:57.583Z,56.30
2023-01-08T17:47:24.755Z,50.60
2023-01-08T17:49:52.346Z,63.00
2023-01-08T17:52:19.328Z,63.90
2023-01-08T17:54:48.969Z,63.20
2023-01-08T17:57:16.472Z,76.80
2023-01-08T17:59:44.267Z,74.60
2023-01-08T18:02:14.911Z,79.20
2023-01-08T18:04:43.203Z,92.10
2023-01-08T18:07:09.816Z,93.30
2023-01-08T19:35:50.092Z,79.10
2023-01-08T19:38:17.442Z,79.50
2023-01-08T19:40:44.258Z,54.90
2023-01-08T19:43:30.774Z,65.60
2023-01-08T19:46:03.616Z,61.70
2023-01-08T19:48:30.654Z,50.80
2023-01-08T19:50:57.590Z,52.80
2023-01-08T19:53:24.376Z,42.50
2023-01-08T19:55:51.099Z,55.00
2023-01-08T19:58:19.859Z,50.80
2023-01-08T20:00:47.164Z,44.60
2023-01-08T20:03:15.078Z,54.80
2023-01-08T20:05:42.345Z,62.30
2023-01-08T20:08:09.153Z,50.10
2023-01-08T20:10:36.020Z,51.40
2023-01-08T20:13:03.287Z,51.40
2023-01-08T20:15:30.371Z,46.30
2023-01-08T20:17:57.577Z,47.10
2023-01-08T20:20:24.615Z,48.00
2023-01-08T20:22:51.463Z,53.40
2023-01-08T20:25:18.420Z,45.10
2023-01-08T20:27:45.455Z,53.40
2023-01-08T20:30:14.855Z,47.30
2023-01-08T20:32:41.981Z,44.10
2023-01-08T20:35:09.342Z,39.30
2023-01-08T20:37:36.316Z,46.40
2023-01-08T20:40:03.251Z,46.10
2023-01-08T20:42:33.976Z,48.70
2023-01-08T20:45:02.057Z,36.10
2023-01-08T20:47:28.900Z,36.60
2023-01-08T20:49:55.726Z,39.90
2023-01-08T20:52:22.451Z,33.90
2023-01-08T20:54:49.262Z,38.90
2023-01-08T20:57:16.021Z,39.80
2023-01-08T20:59:42.900Z,43.70
2023-01-08T21:02:11.502Z,43.60
2023-01-08T21:04:41.711Z,44.70
2023-01-08T21:07:08.544Z,23.70
2023-01-08T21:09:35.511Z,27.60
2023-01-08T21:12:02.278Z,23.60
2023-01-08T21:14:29.040Z,31.70
2023-01-08T21:16:56.643Z,17.70
2023-01-08T21:19:23.472Z,20.80
2023-01-08T21:21:50.328Z,28.00
2023-01-08T21:24:17.105Z,27.80
2023-01-08T21:26:44.599Z,31.50
2023-01-08T21:29:12.092Z,31.10
2023-01-08T21:31:39.081Z,30.10
2023-01-08T21:34:06.366Z,25.80
2023-01-08T21:36:34.513Z,30.70
2023-01-08T21:39:01.660Z,21.60
2023-01-08T21:41:47.761Z,22.00
2023-01-08T21:44:40.258Z,25.60
2023-01-08T21:47:09.223Z,27.20
2023-01-08T21:49:36.274Z,22.10
2023-01-08T21:52:22.428Z,31.10
2023-01-08T21:54:49.549Z,26.40
2023-01-08T21:57:16.889Z,31.20
2023-01-08T21:59:43.673Z,43.50
2023-01-08T22:02:18.300Z,32.70
2023-01-08T22:04:45.261Z,37.70
2023-01-08T22:07:12.955Z,34.00
2023-01-08T22:09:39.773Z,22.30
2023-01-08T22:12:07.316Z,24.40
2023-01-08T22:14:34.732Z,30.80
2023-01-08T22:17:04.121Z,30.10
2023-01-08T22:19:31.020Z,27.40
2023-01-08T22:21:57.767Z,21.40
2023-01-08T22:24:24.507Z,26.00
2023-01-08T22:26:51.318Z,23.70
2023-01-08T22:29:18.246Z,24.10
2023-01-08T22:31:45.024Z,29.30
2023-01-08T22:34:17.085Z,33.00
2023-01-08T22:36:44.900Z,28.90
2023-01-08T22:39:11.926Z,33.20
2023-01-08T22:41:38.832Z,30.40
2023-01-08T22:44:05.747Z,36.10
2023-01-08T22:46:32.542Z,31.80
2023-01-08T22:48:59.320Z,29.80
2023-01-08T22:51:29.148Z,30.30
2023-01-08T22:53:56.814Z,31.20
2023-01-08T22:56:23.952Z,33.40
2023-01-08T22:58:50.791Z,31.40
2023-01-08T23:01:19.831Z,28.00
2023-01-08T23:03:50.678Z,34.70
2023-01-08T23:06:17.768Z,29.60
2023-01-08T23:08:45.230Z,23.50
2023-01-08T23:11:14.902Z,29.90
2023-01-08T23:13:41.784Z,32.20
2023-01-08T23:16:09.981Z,26.30
2023-01-08T23:18:37.005Z,23.40
2023-01-08T23:21:05.184Z,23.40
2023-01-08T23:23:32.081Z,23.80
2023-01-08T23:26:10.644Z,23.50
2023-01-08T23:28:37.682Z,29.20
2023-01-08T23:31:08.723Z,27.70
2023-01-08T23:33:35.545Z,24.70
2023-01-08T23:36:03.121Z,25.00
2023-01-08T23:38:29.912Z,22.50
2023-01-08T23:40:56.859Z,22.40
2023-01-08T23:43:23.763Z,23.60
2023-01-08T23:45:50.741Z,31.80
2023-01-08T23:48:17.507Z,30.40
2023-01-08T23:50:44.318Z,25.70
2023-01-08T23:53:11.055Z,27.10
2023-01-08T23:55:37.837Z,30.10
2023-01-08T23:58:04.501Z,32.20
